Keystone, IN (46759)

5:35 PM EST on February 09, 2016 (GMT -0500)
Southern Wells | | Change Station
CLOSE
Current Station
Personal Weather Station
Location: Poneto, IN
Elevation: 883 ft
Nearby Weather Stations

Elev 883 ft 40.61 °N, 85.28 °W | Updated 14 seconds ago

Snow
Snow
22.1 °F
Feels Like 11 °F
N
11.4
Wind Variable Wind from West
Gusts 15.0 mph

Today
High -- | Low -- °F
--% Chance of Precip.
Yesterday
High -- | Low -- °F
Precip. -- in
Pressure 29.78 in
Visibility 9.0 miles
Clouds Mostly Cloudy 2000 ft
Overcast 3100 ft
Windchill 11 °F
Dew Point 12 °F
Humidity 65%
Rainfall 0.00 in
Snow Depth Not available.
7:42 AM 6:07 PM
New Moon, 2% visible
SPECI KFWA 092209Z 29014KT 9SM -SN BKN020 OVC031 M01/M08 A2978 RMK AO2 P0000 T10061078
Pressure 29.78 in
Visibility 9.0 miles
Clouds Mostly Cloudy 2000 ft
Overcast 3100 ft
Windchill 11 °F
Dew Point 12 °F
Humidity 65%
Rainfall 0.00 in
Snow Depth Not available.
7:42 AM 6:07 PM
New Moon, 2% visible
SPECI KFWA 092209Z 29014KT 9SM -SN BKN020 OVC031 M01/M08 A2978 RMK AO2 P0000 T10061078

10-Day Weather Forecast

Almanac

Astronomy

Feb. 09, 2016 Rise Set
Actual Time
Civil Twilight
Nautical Twilight
Astronomical Twilight
Moon
Length of Visible Light
Length of Day
Tomorrow will be .
, % of the Moon is Illuminated

Today's Extremes

State Highs State Lows

Community

WunderPhotos

Upload Photos

1,891,725 photos uploaded!

WunderBlog® & News

Nearby

Air Quality

  Air Quality AQ Index Pollutant
Not available.

Snow Depth

Station Depth Elevation

Earthquake Activity

City Distance Mag. Time & Date
Minimum magnitude displayed is 2.5.

Coastal Water Temperatures

Place Temperature

Stations

Nearby Weather Stations

Station Location Temp. Windchill Dew Point Humidity Wind Precip. Elev Updated Type
                   

Watches & Warnings

There are currently no watches in effect.